sensor_id;sensor_type;location;lat;lon;timestamp;P1;durP1;ratioP1;P2;durP2;ratioP2
15814;SDS011;8008;50.024;8.172;2023-02-28T04:02:39;2.37;;;2.10;;
15814;SDS011;8008;50.024;8.172;2023-02-28T04:05:07;2.67;;;2.03;;
15814;SDS011;8008;50.024;8.172;2023-02-28T04:07:36;2.40;;;2.20;;
15814;SDS011;8008;50.024;8.172;2023-02-28T04:10:04;3.23;;;2.20;;
15814;SDS011;8008;50.024;8.172;2023-02-28T04:12:33;3.23;;;2.30;;
15814;SDS011;8008;50.024;8.172;2023-02-28T04:15:01;3.47;;;2.20;;
15814;SDS011;8008;50.024;8.172;2023-02-28T04:17:29;2.20;;;2.00;;
15814;SDS011;8008;50.024;8.172;2023-02-28T04:19:58;3.37;;;2.30;;
15814;SDS011;8008;50.024;8.172;2023-02-28T04:22:26;3.03;;;2.40;;
15814;SDS011;8008;50.024;8.172;2023-02-28T04:24:54;3.40;;;2.77;;
15814;SDS011;8008;50.024;8.172;2023-02-28T04:27:22;2.73;;;2.10;;
15814;SDS011;8008;50.024;8.172;2023-02-28T04:29:50;2.40;;;2.10;;
15814;SDS011;8008;50.024;8.172;2023-02-28T04:32:18;3.70;;;2.40;;
15814;SDS011;8008;50.024;8.172;2023-02-28T04:34:46;2.53;;;2.17;;
15814;SDS011;8008;50.024;8.172;2023-02-28T04:37:15;3.97;;;2.50;;
15814;SDS011;8008;50.024;8.172;2023-02-28T04:39:43;3.87;;;2.23;;
15814;SDS011;8008;50.024;8.172;2023-02-28T04:42:11;2.47;;;2.23;;
15814;SDS011;8008;50.024;8.172;2023-02-28T04:44:40;2.43;;;2.10;;
15814;SDS011;8008;50.024;8.172;2023-02-28T04:47:07;2.33;;;2.00;;
15814;SDS011;8008;50.024;8.172;2023-02-28T04:49:35;3.43;;;2.23;;
15814;SDS011;8008;50.024;8.172;2023-02-28T04:52:04;2.23;;;1.90;;
15814;SDS011;8008;50.024;8.172;2023-02-28T04:54:35;3.63;;;2.10;;
15814;SDS011;8008;50.024;8.172;2023-02-28T04:57:04;2.27;;;2.10;;
15814;SDS011;8008;50.024;8.172;2023-02-28T04:59:32;3.37;;;2.13;;
15814;SDS011;8008;50.024;8.172;2023-02-28T05:02:00;4.07;;;2.13;;
15814;SDS011;8008;50.024;8.172;2023-02-28T05:04:32;2.43;;;2.00;;
15814;SDS011;8008;50.024;8.172;2023-02-28T05:07:01;2.43;;;1.90;;
15814;SDS011;8008;50.024;8.172;2023-02-28T05:09:30;2.73;;;2.10;;
15814;SDS011;8008;50.024;8.172;2023-02-28T05:12:00;2.50;;;2.00;;
15814;SDS011;8008;50.024;8.172;2023-02-28T05:14:28;2.97;;;2.10;;
15814;SDS011;8008;50.024;8.172;2023-02-28T05:16:56;3.60;;;2.00;;
15814;SDS011;8008;50.024;8.172;2023-02-28T05:19:24;2.37;;;2.10;;
15814;SDS011;8008;50.024;8.172;2023-02-28T05:21:52;3.23;;;2.10;;
15814;SDS011;8008;50.024;8.172;2023-02-28T05:24:21;3.70;;;2.00;;
15814;SDS011;8008;50.024;8.172;2023-02-28T05:26:50;3.67;;;2.00;;
15814;SDS011;8008;50.024;8.172;2023-02-28T05:29:21;2.47;;;2.10;;
15814;SDS011;8008;50.024;8.172;2023-02-28T05:31:49;2.93;;;2.13;;
15814;SDS011;8008;50.024;8.172;2023-02-28T05:34:17;3.80;;;2.50;;
15814;SDS011;8008;50.024;8.172;2023-02-28T05:36:45;2.63;;;2.07;;
15814;SDS011;8008;50.024;8.172;2023-02-28T05:39:13;3.50;;;2.20;;
15814;SDS011;8008;50.024;8.172;2023-02-28T05:41:41;3.07;;;1.93;;
15814;SDS011;8008;50.024;8.172;2023-02-28T05:44:10;2.97;;;2.23;;
15814;SDS011;8008;50.024;8.172;2023-02-28T05:46:39;3.00;;;2.37;;
15814;SDS011;8008;50.024;8.172;2023-02-28T05:49:07;2.53;;;2.17;;
15814;SDS011;8008;50.024;8.172;2023-02-28T05:51:35;2.80;;;2.20;;
15814;SDS011;8008;50.024;8.172;2023-02-28T05:54:05;2.60;;;2.40;;
15814;SDS011;8008;50.024;8.172;2023-02-28T05:56:34;2.93;;;2.40;;
15814;SDS011;8008;50.024;8.172;2023-02-28T05:59:03;4.03;;;2.40;;
15814;SDS011;8008;50.024;8.172;2023-02-28T06:01:32;3.60;;;2.37;;
15814;SDS011;8008;50.024;8.172;2023-02-28T06:04:03;4.00;;;2.10;;
15814;SDS011;8008;50.024;8.172;2023-02-28T06:06:32;3.10;;;2.37;;
15814;SDS011;8008;50.024;8.172;2023-02-28T06:09:02;3.00;;;2.37;;
15814;SDS011;8008;50.024;8.172;2023-02-28T06:11:30;4.70;;;2.37;;
15814;SDS011;8008;50.024;8.172;2023-02-28T06:13:59;3.53;;;2.33;;
15814;SDS011;8008;50.024;8.172;2023-02-28T06:16:28;4.47;;;2.23;;
15814;SDS011;8008;50.024;8.172;2023-02-28T06:18:57;2.70;;;2.37;;
15814;SDS011;8008;50.024;8.172;2023-02-28T06:21:27;2.47;;;2.13;;
15814;SDS011;8008;50.024;8.172;2023-02-28T06:23:56;3.90;;;2.43;;
15814;SDS011;8008;50.024;8.172;2023-02-28T06:26:25;4.10;;;2.33;;
15814;SDS011;8008;50.024;8.172;2023-02-28T06:28:53;3.43;;;2.13;;
15814;SDS011;8008;50.024;8.172;2023-02-28T06:31:21;7.53;;;2.50;;
15814;SDS011;8008;50.024;8.172;2023-02-28T06:33:52;4.87;;;2.30;;
15814;SDS011;8008;50.024;8.172;2023-02-28T06:36:20;3.63;;;2.50;;
15814;SDS011;8008;50.024;8.172;2023-02-28T06:38:49;2.30;;;2.10;;
15814;SDS011;8008;50.024;8.172;2023-02-28T06:41:21;3.70;;;2.30;;
15814;SDS011;8008;50.024;8.172;2023-02-28T06:43:50;3.33;;;2.50;;
15814;SDS011;8008;50.024;8.172;2023-02-28T06:46:18;4.53;;;2.30;;
15814;SDS011;8008;50.024;8.172;2023-02-28T06:48:47;4.13;;;2.70;;
15814;SDS011;8008;50.024;8.172;2023-02-28T06:51:16;4.73;;;2.40;;
15814;SDS011;8008;50.024;8.172;2023-02-28T06:53:46;3.53;;;2.40;;
15814;SDS011;8008;50.024;8.172;2023-02-28T06:56:16;4.40;;;2.63;;
15814;SDS011;8008;50.024;8.172;2023-02-28T06:58:45;4.47;;;2.60;;
15814;SDS011;8008;50.024;8.172;2023-02-28T07:01:15;9.63;;;2.43;;
15814;SDS011;8008;50.024;8.172;2023-02-28T07:03:44;3.73;;;2.47;;
15814;SDS011;8008;50.024;8.172;2023-02-28T07:06:12;5.43;;;2.17;;
15814;SDS011;8008;50.024;8.172;2023-02-28T07:08:40;2.90;;;2.17;;
15814;SDS011;8008;50.024;8.172;2023-02-28T07:11:08;5.33;;;2.23;;
15814;SDS011;8008;50.024;8.172;2023-02-28T07:13:37;4.73;;;2.30;;
15814;SDS011;8008;50.024;8.172;2023-02-28T07:16:06;4.60;;;2.10;;
15814;SDS011;8008;50.024;8.172;2023-02-28T07:18:36;4.63;;;2.10;;
15814;SDS011;8008;50.024;8.172;2023-02-28T07:21:06;2.80;;;2.00;;
15814;SDS011;8008;50.024;8.172;2023-02-28T07:23:35;2.93;;;2.03;;
15814;SDS011;8008;50.024;8.172;2023-02-28T07:26:05;3.10;;;2.07;;
15814;SDS011;8008;50.024;8.172;2023-02-28T07:28:33;2.37;;;1.90;;
15814;SDS011;8008;50.024;8.172;2023-02-28T07:31:05;6.53;;;2.10;;
15814;SDS011;8008;50.024;8.172;2023-02-28T07:33:34;2.93;;;2.30;;
15814;SDS011;8008;50.024;8.172;2023-02-28T07:36:03;2.73;;;1.97;;
15814;SDS011;8008;50.024;8.172;2023-02-28T07:38:33;3.57;;;1.87;;
15814;SDS011;8008;50.024;8.172;2023-02-28T07:41:01;3.87;;;1.97;;
15814;SDS011;8008;50.024;8.172;2023-02-28T07:43:30;2.50;;;2.10;;
15814;SDS011;8008;50.024;8.172;2023-02-28T07:46:01;3.33;;;2.00;;
15814;SDS011;8008;50.024;8.172;2023-02-28T07:48:31;4.13;;;2.20;;
15814;SDS011;8008;50.024;8.172;2023-02-28T07:50:59;5.13;;;2.07;;
15814;SDS011;8008;50.024;8.172;2023-02-28T07:53:27;2.97;;;2.10;;
15814;SDS011;8008;50.024;8.172;2023-02-28T07:55:55;4.77;;;2.07;;
15814;SDS011;8008;50.024;8.172;2023-02-28T07:58:24;2.47;;;2.13;;
15814;SDS011;8008;50.024;8.172;2023-02-28T08:00:53;2.40;;;2.10;;
15814;SDS011;8008;50.024;8.172;2023-02-28T08:03:21;3.40;;;2.00;;
15814;SDS011;8008;50.024;8.172;2023-02-28T08:05:51;2.20;;;2.00;;
15814;SDS011;8008;50.024;8.172;2023-02-28T08:08:19;4.27;;;2.27;;
15814;SDS011;8008;50.024;8.172;2023-02-28T08:10:47;3.73;;;2.30;;
15814;SDS011;8008;50.024;8.172;2023-02-28T08:13:15;3.60;;;2.10;;
15814;SDS011;8008;50.024;8.172;2023-02-28T08:15:44;3.00;;;2.20;;
15814;SDS011;8008;50.024;8.172;2023-02-28T08:18:13;2.40;;;2.20;;
15814;SDS011;8008;50.024;8.172;2023-02-28T08:20:41;2.10;;;1.90;;
15814;SDS011;8008;50.024;8.172;2023-02-28T08:23:10;3.40;;;2.27;;
15814;SDS011;8008;50.024;8.172;2023-02-28T08:25:38;3.27;;;2.27;;
15814;SDS011;8008;50.024;8.172;2023-02-28T08:28:06;4.30;;;2.30;;
15814;SDS011;8008;50.024;8.172;2023-02-28T08:30:34;3.07;;;2.20;;
15814;SDS011;8008;50.024;8.172;2023-02-28T08:33:02;3.30;;;2.43;;
15814;SDS011;8008;50.024;8.172;2023-02-28T08:35:30;3.77;;;2.60;;
15814;SDS011;8008;50.024;8.172;2023-02-28T08:37:58;3.93;;;2.60;;
15814;SDS011;8008;50.024;8.172;2023-02-28T08:40:27;3.93;;;2.20;;
15814;SDS011;8008;50.024;8.172;2023-02-28T08:42:55;3.63;;;2.53;;
15814;SDS011;8008;50.024;8.172;2023-02-28T08:45:24;3.67;;;2.37;;
15814;SDS011;8008;50.024;8.172;2023-02-28T08:47:53;5.10;;;2.80;;
15814;SDS011;8008;50.024;8.172;2023-02-28T08:50:21;4.73;;;2.50;;
15814;SDS011;8008;50.024;8.172;2023-02-28T08:52:49;3.80;;;2.50;;
15814;SDS011;8008;50.024;8.172;2023-02-28T08:55:18;4.30;;;2.90;;
15814;SDS011;8008;50.024;8.172;2023-02-28T08:57:47;3.87;;;2.77;;
15814;SDS011;8008;50.024;8.172;2023-02-28T09:00:15;3.90;;;2.80;;
15814;SDS011;8008;50.024;8.172;2023-02-28T09:02:43;3.90;;;2.70;;
15814;SDS011;8008;50.024;8.172;2023-02-28T09:05:11;5.97;;;3.00;;
15814;SDS011;8008;50.024;8.172;2023-02-28T09:07:39;3.63;;;2.90;;
15814;SDS011;8008;50.024;8.172;2023-02-28T09:10:07;3.43;;;2.90;;
15814;SDS011;8008;50.024;8.172;2023-02-28T09:12:36;5.17;;;3.00;;
15814;SDS011;8008;50.024;8.172;2023-02-28T09:15:06;4.90;;;3.17;;
15814;SDS011;8008;50.024;8.172;2023-02-28T09:17:35;4.13;;;2.80;;
15814;SDS011;8008;50.024;8.172;2023-02-28T09:20:02;4.40;;;3.10;;
15814;SDS011;8008;50.024;8.172;2023-02-28T09:24:59;5.07;;;3.27;;
15814;SDS011;8008;50.024;8.172;2023-02-28T09:27:27;5.07;;;3.33;;
15814;SDS011;8008;50.024;8.172;2023-02-28T09:29:55;4.67;;;3.20;;
15814;SDS011;8008;50.024;8.172;2023-02-28T09:32:24;5.40;;;3.20;;
15814;SDS011;8008;50.024;8.172;2023-02-28T09:34:52;5.10;;;3.23;;
15814;SDS011;8008;50.024;8.172;2023-02-28T09:37:20;5.60;;;3.47;;
15814;SDS011;8008;50.024;8.172;2023-02-28T09:39:49;5.93;;;3.20;;
15814;SDS011;8008;50.024;8.172;2023-02-28T09:42:18;4.70;;;3.00;;
15814;SDS011;8008;50.024;8.172;2023-02-28T09:44:58;5.40;;;3.30;;
15814;SDS011;8008;50.024;8.172;2023-02-28T09:47:33;5.37;;;2.93;;
15814;SDS011;8008;50.024;8.172;2023-02-28T09:50:06;4.60;;;3.10;;
15814;SDS011;8008;50.024;8.172;2023-02-28T09:52:44;3.90;;;2.90;;
15814;SDS011;8008;50.024;8.172;2023-02-28T09:55:18;3.40;;;3.10;;
15814;SDS011;8008;50.024;8.172;2023-02-28T09:57:49;6.03;;;3.20;;
15814;SDS011;8008;50.024;8.172;2023-02-28T10:00:19;5.40;;;3.13;;
15814;SDS011;8008;50.024;8.172;2023-02-28T10:02:56;5.80;;;3.47;;
15814;SDS011;8008;50.024;8.172;2023-02-28T10:05:43;4.67;;;3.40;;
15814;SDS011;8008;50.024;8.172;2023-02-28T10:08:19;5.63;;;3.67;;
15814;SDS011;8008;50.024;8.172;2023-02-28T10:10:53;6.53;;;3.20;;
15814;SDS011;8008;50.024;8.172;2023-02-28T10:13:25;4.83;;;3.43;;
15814;SDS011;8008;50.024;8.172;2023-02-28T10:16:00;3.50;;;2.90;;
15814;SDS011;8008;50.024;8.172;2023-02-28T10:18:37;4.43;;;3.17;;
15814;SDS011;8008;50.024;8.172;2023-02-28T10:21:15;6.53;;;3.30;;
15814;SDS011;8008;50.024;8.172;2023-02-28T10:23:48;5.60;;;3.30;;
15814;SDS011;8008;50.024;8.172;2023-02-28T10:26:17;4.03;;;3.23;;
15814;SDS011;8008;50.024;8.172;2023-02-28T10:28:45;4.40;;;3.37;;
15814;SDS011;8008;50.024;8.172;2023-02-28T10:31:14;5.60;;;3.57;;
15814;SDS011;8008;50.024;8.172;2023-02-28T10:33:47;3.73;;;3.10;;
15814;SDS011;8008;50.024;8.172;2023-02-28T10:36:16;3.90;;;3.03;;
15814;SDS011;8008;50.024;8.172;2023-02-28T10:38:45;5.33;;;3.33;;
15814;SDS011;8008;50.024;8.172;2023-02-28T10:41:15;9.80;;;3.63;;
15814;SDS011;8008;50.024;8.172;2023-02-28T10:44:12;4.00;;;3.20;;
15814;SDS011;8008;50.024;8.172;2023-02-28T10:46:41;4.33;;;3.47;;
15814;SDS011;8008;50.024;8.172;2023-02-28T10:49:15;4.47;;;3.20;;
15814;SDS011;8008;50.024;8.172;2023-02-28T10:51:46;6.03;;;3.80;;
15814;SDS011;8008;50.024;8.172;2023-02-28T10:54:19;5.13;;;3.37;;
15814;SDS011;8008;50.024;8.172;2023-02-28T10:59:36;4.57;;;3.43;;
15814;SDS011;8008;50.024;8.172;2023-02-28T11:02:11;5.50;;;3.70;;
15814;SDS011;8008;50.024;8.172;2023-02-28T11:04:58;5.43;;;3.40;;
15814;SDS011;8008;50.024;8.172;2023-02-28T11:07:26;6.53;;;3.40;;
15814;SDS011;8008;50.024;8.172;2023-02-28T11:10:06;5.20;;;3.07;;
15814;SDS011;8008;50.024;8.172;2023-02-28T11:12:45;4.10;;;3.70;;
15814;SDS011;8008;50.024;8.172;2023-02-28T11:15:21;4.77;;;3.60;;
15814;SDS011;8008;50.024;8.172;2023-02-28T11:17:54;4.43;;;3.27;;
15814;SDS011;8008;50.024;8.172;2023-02-28T11:20:26;5.60;;;3.47;;
15814;SDS011;8008;50.024;8.172;2023-02-28T11:22:57;7.67;;;3.20;;
15814;SDS011;8008;50.024;8.172;2023-02-28T11:25:29;5.67;;;3.67;;
15814;SDS011;8008;50.024;8.172;2023-02-28T11:27:59;4.47;;;3.83;;
15814;SDS011;8008;50.024;8.172;2023-02-28T11:30:33;5.37;;;3.50;;
15814;SDS011;8008;50.024;8.172;2023-02-28T11:35:50;5.80;;;3.50;;
15814;SDS011;8008;50.024;8.172;2023-02-28T11:38:19;4.80;;;3.80;;
15814;SDS011;8008;50.024;8.172;2023-02-28T11:40:48;7.47;;;4.10;;
15814;SDS011;8008;50.024;8.172;2023-02-28T11:43:35;4.20;;;3.80;;
15814;SDS011;8008;50.024;8.172;2023-02-28T11:46:18;4.43;;;3.60;;
15814;SDS011;8008;50.024;8.172;2023-02-28T11:48:55;5.17;;;3.93;;
15814;SDS011;8008;50.024;8.172;2023-02-28T11:51:32;5.73;;;4.27;;
15814;SDS011;8008;50.024;8.172;2023-02-28T11:54:06;4.93;;;3.93;;
15814;SDS011;8008;50.024;8.172;2023-02-28T11:56:46;6.63;;;4.10;;
15814;SDS011;8008;50.024;8.172;2023-02-28T11:59:27;7.30;;;3.80;;
15814;SDS011;8008;50.024;8.172;2023-02-28T12:02:22;4.93;;;4.10;;
15814;SDS011;8008;50.024;8.172;2023-02-28T12:04:54;5.50;;;3.70;;
15814;SDS011;8008;50.024;8.172;2023-02-28T12:07:39;5.07;;;3.70;;
15814;SDS011;8008;50.024;8.172;2023-02-28T12:10:20;5.00;;;3.87;;
15814;SDS011;8008;50.024;8.172;2023-02-28T12:12:53;4.80;;;3.80;;
15814;SDS011;8008;50.024;8.172;2023-02-28T12:15:37;7.93;;;4.37;;
15814;SDS011;8008;50.024;8.172;2023-02-28T12:18:26;8.27;;;4.43;;
15814;SDS011;8008;50.024;8.172;2023-02-28T12:21:08;4.73;;;3.60;;
15814;SDS011;8008;50.024;8.172;2023-02-28T12:23:47;5.17;;;3.90;;
15814;SDS011;8008;50.024;8.172;2023-02-28T12:26:32;7.23;;;3.80;;
15814;SDS011;8008;50.024;8.172;2023-02-28T12:29:14;6.17;;;4.00;;
15814;SDS011;8008;50.024;8.172;2023-02-28T12:31:46;5.13;;;3.73;;
15814;SDS011;8008;50.024;8.172;2023-02-28T12:34:20;4.87;;;4.27;;
15814;SDS011;8008;50.024;8.172;2023-02-28T12:36:52;6.23;;;3.70;;
15814;SDS011;8008;50.024;8.172;2023-02-28T12:39:25;4.77;;;3.73;;
15814;SDS011;8008;50.024;8.172;2023-02-28T12:42:05;6.97;;;4.10;;
15814;SDS011;8008;50.024;8.172;2023-02-28T12:44:40;7.93;;;4.20;;
15814;SDS011;8008;50.024;8.172;2023-02-28T12:47:13;7.33;;;4.27;;
15814;SDS011;8008;50.024;8.172;2023-02-28T12:49:44;7.50;;;4.63;;
15814;SDS011;8008;50.024;8.172;2023-02-28T12:52:18;6.10;;;4.03;;
15814;SDS011;8008;50.024;8.172;2023-02-28T12:54:54;7.37;;;4.20;;
15814;SDS011;8008;50.024;8.172;2023-02-28T12:57:32;7.80;;;4.37;;
15814;SDS011;8008;50.024;8.172;2023-02-28T13:00:09;6.57;;;4.50;;
15814;SDS011;8008;50.024;8.172;2023-02-28T13:02:48;5.77;;;4.10;;
15814;SDS011;8008;50.024;8.172;2023-02-28T13:05:42;7.07;;;4.33;;
15814;SDS011;8008;50.024;8.172;2023-02-28T13:11:29;6.40;;;4.20;;
15814;SDS011;8008;50.024;8.172;2023-02-28T13:14:00;5.40;;;4.20;;
15814;SDS011;8008;50.024;8.172;2023-02-28T13:19:27;7.73;;;4.60;;
15814;SDS011;8008;50.024;8.172;2023-02-28T13:21:58;6.27;;;4.30;;
15814;SDS011;8008;50.024;8.172;2023-02-28T13:24:39;7.07;;;4.60;;
15814;SDS011;8008;50.024;8.172;2023-02-28T13:33:21;5.70;;;4.20;;
15814;SDS011;8008;50.024;8.172;2023-02-28T13:36:26;7.70;;;4.67;;
15814;SDS011;8008;50.024;8.172;2023-02-28T13:38:56;7.00;;;4.80;;
15814;SDS011;8008;50.024;8.172;2023-02-28T13:41:43;6.47;;;4.47;;
15814;SDS011;8008;50.024;8.172;2023-02-28T13:44:16;5.80;;;4.60;;
15814;SDS011;8008;50.024;8.172;2023-02-28T13:50:18;6.70;;;4.50;;
15814;SDS011;8008;50.024;8.172;2023-02-28T13:53:01;6.13;;;4.73;;
15814;SDS011;8008;50.024;8.172;2023-02-28T13:55:45;7.07;;;4.83;;
15814;SDS011;8008;50.024;8.172;2023-02-28T13:58:25;5.90;;;4.27;;
15814;SDS011;8008;50.024;8.172;2023-02-28T14:01:14;5.00;;;4.37;;
15814;SDS011;8008;50.024;8.172;2023-02-28T14:03:58;5.80;;;4.13;;
15814;SDS011;8008;50.024;8.172;2023-02-28T14:06:46;5.23;;;4.13;;
15814;SDS011;8008;50.024;8.172;2023-02-28T14:09:17;5.37;;;4.40;;
15814;SDS011;8008;50.024;8.172;2023-02-28T14:11:49;6.67;;;4.80;;
15814;SDS011;8008;50.024;8.172;2023-02-28T14:17:22;7.93;;;4.80;;
15814;SDS011;8008;50.024;8.172;2023-02-28T14:19:52;8.23;;;4.50;;
15814;SDS011;8008;50.024;8.172;2023-02-28T14:22:26;5.37;;;4.23;;
15814;SDS011;8008;50.024;8.172;2023-02-28T14:25:20;6.20;;;4.57;;
15814;SDS011;8008;50.024;8.172;2023-02-28T14:27:55;6.60;;;4.83;;
15814;SDS011;8008;50.024;8.172;2023-02-28T14:30:43;5.83;;;4.43;;
15814;SDS011;8008;50.024;8.172;2023-02-28T14:33:38;7.13;;;4.40;;
15814;SDS011;8008;50.024;8.172;2023-02-28T14:36:17;5.93;;;4.57;;
15814;SDS011;8008;50.024;8.172;2023-02-28T14:38:49;5.25;;;4.68;;
15814;SDS011;8008;50.024;8.172;2023-02-28T14:41:21;7.28;;;4.60;;
15814;SDS011;8008;50.024;8.172;2023-02-28T14:43:52;6.38;;;4.60;;
15814;SDS011;8008;50.024;8.172;2023-02-28T14:46:22;5.15;;;4.65;;
15814;SDS011;8008;50.024;8.172;2023-02-28T14:48:55;8.85;;;4.88;;
15814;SDS011;8008;50.024;8.172;2023-02-28T14:51:23;5.72;;;5.13;;
15814;SDS011;8008;50.024;8.172;2023-02-28T14:53:56;6.72;;;5.22;;
15814;SDS011;8008;50.024;8.172;2023-02-28T14:56:27;6.50;;;5.25;;
15814;SDS011;8008;50.024;8.172;2023-02-28T14:58:59;7.70;;;5.10;;
15814;SDS011;8008;50.024;8.172;2023-02-28T15:01:27;7.55;;;5.43;;
15814;SDS011;8008;50.024;8.172;2023-02-28T15:03:58;5.90;;;5.30;;
15814;SDS011;8008;50.024;8.172;2023-02-28T15:06:29;5.78;;;5.15;;
15814;SDS011;8008;50.024;8.172;2023-02-28T15:09:07;7.10;;;5.60;;
15814;SDS011;8008;50.024;8.172;2023-02-28T15:11:38;5.90;;;5.30;;
15814;SDS011;8008;50.024;8.172;2023-02-28T15:14:07;5.85;;;5.25;;
15814;SDS011;8008;50.024;8.172;2023-02-28T15:16:48;5.85;;;5.10;;
15814;SDS011;8008;50.024;8.172;2023-02-28T15:19:21;6.35;;;5.15;;
15814;SDS011;8008;50.024;8.172;2023-02-28T15:21:52;8.20;;;5.90;;
15814;SDS011;8008;50.024;8.172;2023-02-28T15:24:28;7.78;;;5.47;;
15814;SDS011;8008;50.024;8.172;2023-02-28T15:27:03;8.25;;;5.40;;
15814;SDS011;8008;50.024;8.172;2023-02-28T15:29:34;5.63;;;5.07;;
15814;SDS011;8008;50.024;8.172;2023-02-28T15:32:25;6.38;;;5.00;;
15814;SDS011;8008;50.024;8.172;2023-02-28T15:34:58;7.07;;;4.82;;
15814;SDS011;8008;50.024;8.172;2023-02-28T15:37:36;6.35;;;4.78;;
15814;SDS011;8008;50.024;8.172;2023-02-28T15:40:16;5.68;;;4.93;;
15814;SDS011;8008;50.024;8.172;2023-02-28T15:43:00;5.70;;;4.97;;
15814;SDS011;8008;50.024;8.172;2023-02-28T15:45:33;5.25;;;4.60;;
15814;SDS011;8008;50.024;8.172;2023-02-28T15:48:13;6.80;;;4.80;;
15814;SDS011;8008;50.024;8.172;2023-02-28T15:50:48;6.28;;;4.75;;
15814;SDS011;8008;50.024;8.172;2023-02-28T15:53:19;6.07;;;4.40;;
15814;SDS011;8008;50.024;8.172;2023-02-28T15:55:54;6.00;;;4.50;;
15814;SDS011;8008;50.024;8.172;2023-02-28T15:58:25;6.97;;;4.87;;
15814;SDS011;8008;50.024;8.172;2023-02-28T16:01:01;7.40;;;4.90;;
15814;SDS011;8008;50.024;8.172;2023-02-28T16:03:38;6.13;;;4.30;;
15814;SDS011;8008;50.024;8.172;2023-02-28T16:06:12;6.30;;;4.80;;
15814;SDS011;8008;50.024;8.172;2023-02-28T16:08:54;6.00;;;4.67;;
15814;SDS011;8008;50.024;8.172;2023-02-28T16:11:22;5.27;;;4.63;;
15814;SDS011;8008;50.024;8.172;2023-02-28T16:13:50;6.87;;;4.57;;
15814;SDS011;8008;50.024;8.172;2023-02-28T16:16:20;7.20;;;4.73;;
15814;SDS011;8008;50.024;8.172;2023-02-28T16:18:51;5.03;;;4.13;;
15814;SDS011;8008;50.024;8.172;2023-02-28T16:21:21;8.03;;;5.20;;
15814;SDS011;8008;50.024;8.172;2023-02-28T16:23:49;5.23;;;4.10;;
15814;SDS011;8008;50.024;8.172;2023-02-28T16:26:20;6.17;;;4.53;;
15814;SDS011;8008;50.024;8.172;2023-02-28T16:28:50;5.47;;;4.47;;
15814;SDS011;8008;50.024;8.172;2023-02-28T16:31:18;5.20;;;4.33;;
15814;SDS011;8008;50.024;8.172;2023-02-28T16:33:47;5.30;;;4.10;;
15814;SDS011;8008;50.024;8.172;2023-02-28T16:36:16;7.30;;;4.80;;
15814;SDS011;8008;50.024;8.172;2023-02-28T16:38:47;6.87;;;4.50;;
15814;SDS011;8008;50.024;8.172;2023-02-28T16:41:17;5.87;;;4.57;;
15814;SDS011;8008;50.024;8.172;2023-02-28T16:43:47;9.07;;;4.50;;
15814;SDS011;8008;50.024;8.172;2023-02-28T16:46:16;6.63;;;5.00;;
15814;SDS011;8008;50.024;8.172;2023-02-28T16:48:45;6.43;;;4.77;;
15814;SDS011;8008;50.024;8.172;2023-02-28T16:51:15;5.97;;;4.27;;
15814;SDS011;8008;50.024;8.172;2023-02-28T16:53:43;6.63;;;4.53;;
15814;SDS011;8008;50.024;8.172;2023-02-28T16:56:15;5.73;;;4.50;;
15814;SDS011;8008;50.024;8.172;2023-02-28T16:58:45;6.23;;;4.60;;
15814;SDS011;8008;50.024;8.172;2023-02-28T17:01:14;6.37;;;4.47;;
15814;SDS011;8008;50.024;8.172;2023-02-28T17:03:43;5.47;;;4.33;;
15814;SDS011;8008;50.024;8.172;2023-02-28T17:06:15;6.40;;;4.87;;
15814;SDS011;8008;50.024;8.172;2023-02-28T17:08:46;7.30;;;4.80;;
15814;SDS011;8008;50.024;8.172;2023-02-28T17:11:15;5.97;;;4.30;;
15814;SDS011;8008;50.024;8.172;2023-02-28T17:13:43;7.70;;;5.50;;
15814;SDS011;8008;50.024;8.172;2023-02-28T17:16:13;8.07;;;5.50;;
15814;SDS011;8008;50.024;8.172;2023-02-28T17:18:46;9.17;;;5.57;;
15814;SDS011;8008;50.024;8.172;2023-02-28T17:21:14;8.17;;;5.00;;
15814;SDS011;8008;50.024;8.172;2023-02-28T17:23:43;6.40;;;4.73;;
15814;SDS011;8008;50.024;8.172;2023-02-28T17:26:12;7.97;;;4.87;;
15814;SDS011;8008;50.024;8.172;2023-02-28T17:28:43;7.33;;;4.77;;
15814;SDS011;8008;50.024;8.172;2023-02-28T17:31:11;7.30;;;4.63;;
15814;SDS011;8008;50.024;8.172;2023-02-28T17:33:39;6.33;;;4.40;;
15814;SDS011;8008;50.024;8.172;2023-02-28T17:36:09;6.83;;;4.60;;
15814;SDS011;8008;50.024;8.172;2023-02-28T17:38:40;7.87;;;4.70;;
15814;SDS011;8008;50.024;8.172;2023-02-28T17:41:08;6.70;;;4.80;;
15814;SDS011;8008;50.024;8.172;2023-02-28T17:43:39;6.60;;;4.67;;
15814;SDS011;8008;50.024;8.172;2023-02-28T17:46:09;5.90;;;4.27;;
15814;SDS011;8008;50.024;8.172;2023-02-28T17:48:44;6.40;;;4.33;;
15814;SDS011;8008;50.024;8.172;2023-02-28T17:51:12;6.70;;;5.10;;
15814;SDS011;8008;50.024;8.172;2023-02-28T17:53:41;7.37;;;5.07;;
15814;SDS011;8008;50.024;8.172;2023-02-28T17:56:11;6.73;;;5.00;;
15814;SDS011;8008;50.024;8.172;2023-02-28T17:58:41;7.63;;;5.37;;
15814;SDS011;8008;50.024;8.172;2023-02-28T18:01:09;6.90;;;4.90;;
15814;SDS011;8008;50.024;8.172;2023-02-28T18:03:38;8.57;;;5.00;;
15814;SDS011;8008;50.024;8.172;2023-02-28T18:06:06;7.23;;;4.87;;
15814;SDS011;8008;50.024;8.172;2023-02-28T18:08:39;7.60;;;4.90;;
15814;SDS011;8008;50.024;8.172;2023-02-28T18:11:07;6.77;;;4.87;;
15814;SDS011;8008;50.024;8.172;2023-02-28T18:13:45;7.10;;;4.83;;
15814;SDS011;8008;50.024;8.172;2023-02-28T18:16:14;5.70;;;4.77;;
15814;SDS011;8008;50.024;8.172;2023-02-28T18:18:42;7.10;;;5.03;;
15814;SDS011;8008;50.024;8.172;2023-02-28T18:21:12;6.47;;;4.70;;
15814;SDS011;8008;50.024;8.172;2023-02-28T18:23:41;8.27;;;4.63;;
15814;SDS011;8008;50.024;8.172;2023-02-28T18:26:13;5.43;;;4.63;;
15814;SDS011;8008;50.024;8.172;2023-02-28T18:28:42;5.60;;;4.30;;
15814;SDS011;8008;50.024;8.172;2023-02-28T18:31:12;8.87;;;5.10;;
15814;SDS011;8008;50.024;8.172;2023-02-28T18:33:42;6.10;;;4.67;;
15814;SDS011;8008;50.024;8.172;2023-02-28T18:36:10;6.83;;;4.53;;
15814;SDS011;8008;50.024;8.172;2023-02-28T18:38:38;5.37;;;4.43;;
15814;SDS011;8008;50.024;8.172;2023-02-28T18:41:06;7.50;;;4.30;;
15814;SDS011;8008;50.024;8.172;2023-02-28T18:43:35;7.90;;;4.77;;
15814;SDS011;8008;50.024;8.172;2023-02-28T18:46:05;7.33;;;4.93;;
15814;SDS011;8008;50.024;8.172;2023-02-28T18:48:35;7.30;;;4.40;;
15814;SDS011;8008;50.024;8.172;2023-02-28T18:51:06;7.83;;;4.60;;
15814;SDS011;8008;50.024;8.172;2023-02-28T18:53:36;6.17;;;4.43;;
15814;SDS011;8008;50.024;8.172;2023-02-28T18:56:06;7.53;;;4.63;;
15814;SDS011;8008;50.024;8.172;2023-02-28T18:58:35;6.20;;;4.70;;
15814;SDS011;8008;50.024;8.172;2023-02-28T19:01:06;6.83;;;4.70;;
15814;SDS011;8008;50.024;8.172;2023-02-28T19:03:42;6.13;;;4.90;;
15814;SDS011;8008;50.024;8.172;2023-02-28T19:06:10;6.37;;;4.73;;
15814;SDS011;8008;50.024;8.172;2023-02-28T19:08:39;7.00;;;4.90;;
15814;SDS011;8008;50.024;8.172;2023-02-28T19:11:07;6.10;;;4.57;;
15814;SDS011;8008;50.024;8.172;2023-02-28T19:13:36;6.63;;;4.80;;
15814;SDS011;8008;50.024;8.172;2023-02-28T19:16:04;7.67;;;4.83;;
15814;SDS011;8008;50.024;8.172;2023-02-28T19:18:33;7.30;;;5.70;;
15814;SDS011;8008;50.024;8.172;2023-02-28T19:21:04;7.70;;;5.30;;
15814;SDS011;8008;50.024;8.172;2023-02-28T19:23:32;7.03;;;5.43;;
15814;SDS011;8008;50.024;8.172;2023-02-28T19:26:04;7.57;;;5.20;;
15814;SDS011;8008;50.024;8.172;2023-02-28T19:28:32;7.83;;;5.40;;
15814;SDS011;8008;50.024;8.172;2023-02-28T19:31:00;6.67;;;4.57;;
15814;SDS011;8008;50.024;8.172;2023-02-28T19:33:28;7.53;;;5.40;;
15814;SDS011;8008;50.024;8.172;2023-02-28T19:35:58;7.23;;;5.10;;
15814;SDS011;8008;50.024;8.172;2023-02-28T19:38:28;5.80;;;4.80;;
15814;SDS011;8008;50.024;8.172;2023-02-28T19:40:58;7.43;;;4.90;;
15814;SDS011;8008;50.024;8.172;2023-02-28T19:43:27;6.77;;;4.90;;
15814;SDS011;8008;50.024;8.172;2023-02-28T19:45:55;9.23;;;4.63;;
15814;SDS011;8008;50.024;8.172;2023-02-28T19:48:23;6.63;;;4.63;;
15814;SDS011;8008;50.024;8.172;2023-02-28T19:50:56;7.00;;;4.80;;
15814;SDS011;8008;50.024;8.172;2023-02-28T19:53:24;6.87;;;4.90;;
15814;SDS011;8008;50.024;8.172;2023-02-28T19:55:54;10.20;;;4.57;;